Latest Weather Observations for Cessnock Airport

IDN60801

Issued at 11:33 am EST Thursday 1 September 2016 (issued every 30 minutes, with the page automatically refreshed every 10 minutes)

About weather observations | Map of weather stations | Latest weather observations for NSW | Other Formats
Station Details ID: 061260 Name: CESSNOCK AIRPORT AWS Lat: -32.79 Lon: 151.34 Height: 61.0 m
Data from the previous 72 hours. | See also: Recent months at Cessnock Airport
Date/Time
EST
Temp
°C
App
Temp
°C
Dew
Point
°C
Rel
Hum
%
Delta-T
°C
Wind Press
QNH
hPa
Press
MSL
hPa
Rain since
9am
mm
Dir  Spd
km/h
Gust
km/h
Spd
kts
Gust
kts
01/11:30am 20.9 18.4 9.8 49 6.0 N 13 19 7 10 1018.4 1018.4 0.0
01/11:00am 20.8 19.4 10.9 53 5.4 NNE 9 20 5 11 1018.7 1018.7 0.0
01/10:30am 19.7 18.3 10.9 57 4.8 NW 9 17 5 9 1019.2 1019.2 0.0
01/10:00am 19.0 17.3 12.5 66 3.6 WNW 13 19 7 10 1019.7 1019.7 0.0
01/09:30am 17.6 15.9 12.5 72 2.8 N 13 19 7 10 1020.0 1020.1 0.0
01/09:00am 16.6 15.6 13.5 82 1.7 N 11 15 6 8 1020.1 1020.2 0.2
01/08:30am 14.9 14.1 13.9 94 0.6 NNW 11 17 6 9 1020.1 1020.2 0.2
01/08:00am 12.1 12.7 11.9 99 0.1 CALM 0 0 0 0 1020.0 1020.1 0.2
01/07:30am 10.0 8.9 9.9 99 0.1 WSW 6 7 3 4 1019.9 1020.0 0.2
01/07:00am 9.0 8.4 8.9 99 0.0 SSW 2 6 1 3 1019.7 1019.8 0.2
01/06:30am 9.2 9.0 9.1 99 0.0 CALM 0 0 0 0 1019.5 1019.6 0.2
01/06:00am 8.6 8.3 8.5 99 0.0 CALM 0 0 0 0 1019.1 1019.2 0.2
01/05:30am 8.0 6.1 7.7 98 0.1 WSW 7 7 4 4 1018.9 1019.0 0.2
01/05:00am 7.8 6.5 7.5 98 0.1 SSW 4 7 2 4 1018.5 1018.6 0.2
01/04:30am 7.9 6.6 7.5 97 0.2 WSW 4 7 2 4 1018.3 1018.4 0.0
01/04:00am 8.6 7.0 8.0 96 0.3 SSE 6 7 3 4 1018.3 1018.4 0.0
01/03:30am 10.4 10.0 9.8 96 0.3 NE 2 7 1 4 1018.3 1018.4 0.0
01/03:00am 11.1 10.0 10.0 93 0.6 ENE 6 9 3 5 1018.2 1018.3 0.0
01/02:30am 13.0 12.0 12.2 95 0.4 NNW 9 13 5 7 1018.1 1018.2 0.0
01/02:00am 13.8 12.7 13.0 95 0.4 NNW 11 17 6 9 1018.4 1018.5 0.0
01/01:30am 13.4 12.2 12.8 96 0.3 NNW 11 15 6 8 1018.2 1018.3 0.0
01/01:00am 12.9 12.5 12.3 96 0.3 NNW 6 7 3 4 1018.5 1018.6 0.0
01/12:30am 13.7 12.2 13.1 96 0.3 N 13 20 7 11 1018.2 1018.3 0.0
01/12:00am 13.6 13.1 12.8 95 0.4 N 7 11 4 6 1018.1 1018.2 0.0
 
Date/Time
EST
Temp
°C
App
Temp
°C
Dew
Point
°C
Rel
Hum
%
Delta-T
°C
Wind Press
QNH
hPa
Press
MSL
hPa
Rain since
9am
mm
Dir  Spd
km/h
Gust
km/h
Spd
kts
Gust
kts
31/11:30pm 14.1 13.0 13.0 93 0.6 NNW 11 15 6 8 1018.1 1018.2 0.0
31/11:00pm 14.3 14.0 12.7 90 0.9 NW 6 9 3 5 1018.2 1018.3 0.0
31/10:30pm 14.7 14.0 13.2 91 0.8 NNW 9 13 5 7 1018.4 1018.5 0.0
31/10:00pm 15.4 14.8 13.4 88 1.1 NNW 9 15 5 8 1018.5 1018.6 0.0
31/09:30pm 15.2 14.2 13.4 89 1.0 WNW 11 15 6 8 1018.7 1018.8 0.0
31/09:00pm 15.8 14.5 13.8 88 1.1 NNW 13 17 7 9 1018.3 1018.4 0.0
31/08:30pm 15.3 14.9 14.0 92 0.7 NNW 9 15 5 8 1018.4 1018.5 0.0
31/08:00pm 15.3 14.3 13.5 89 1.0 NNW 11 15 6 8 1018.0 1018.1 0.0
31/07:30pm 15.7 14.9 13.9 89 1.0 NNW 11 17 6 9 1017.9 1018.0 0.0
31/07:00pm 16.1 14.5 13.9 87 1.2 NNW 15 20 8 11 1017.7 1017.8 0.0
31/06:30pm 16.7 15.1 13.8 83 1.6 NNW 15 22 8 12 1017.5 1017.6 0.0
31/06:00pm 17.0 15.7 13.7 81 1.9 NNW 13 20 7 11 1017.3 1017.4 0.0
31/05:30pm 17.3 15.7 13.8 80 2.0 NNW 15 26 8 14 1017.1 1017.2 0.0
31/05:00pm 17.5 15.8 13.6 78 2.2 NNW 15 26 8 14 1016.5 1016.6 0.0
31/04:30pm 17.8 16.6 13.9 78 2.2 NNW 13 20 7 11 1016.6 1016.7 0.0
31/04:00pm 17.8 15.7 13.7 77 2.3 NW 17 26 9 14 1016.6 1016.7 0.0
31/03:30pm 19.0 16.0 12.7 67 3.5 NW 20 35 11 19 1016.3 1016.3 0.0
31/03:00pm 19.4 16.4 12.7 65 3.8 WNW 20 35 11 19 1016.2 1016.2 0.0
31/02:30pm 20.2 17.2 12.4 61 4.4 NW 20 37 11 20 1016.4 1016.4 0.0
31/02:00pm 21.0 17.9 12.2 57 4.9 NW 20 41 11 22 1016.6 1016.7 0.0
31/01:30pm 20.0 17.8 12.0 60 4.5 NW 15 28 8 15 1016.9 1017.0 0.0
31/01:00pm 19.4 16.5 12.2 63 4.0 NNW 19 30 10 16 1017.3 1017.4 0.0
31/12:30pm 20.7 16.9 11.3 55 5.2 NW 22 35 12 19 1017.5 1017.6 0.0
31/12:00pm 21.1 16.2 11.2 53 5.5 NNW 28 46 15 25 1018.0 1018.1 0.0
31/11:51am 20.9 16.8 11.3 54 5.3 NNW 24 54 13 29 1018.2 1018.3 0.0
31/11:30am 20.7 18.4 11.6 56 5.1 N 15 20 8 11 1018.3 1018.4 0.0
31/11:00am 20.9 17.7 11.8 56 5.1 N 20 30 11 16 1018.6 1018.7 0.0
31/10:30am 19.4 18.4 12.2 63 4.0 NNE 9 17 5 9 1019.3 1019.4 0.0
31/10:00am 19.5 18.1 12.3 63 4.0 N 11 13 6 7 1019.6 1019.7 0.0
31/09:30am 17.9 17.4 13.8 77 2.3 N 9 15 5 8 1019.9 1020.0 0.0
31/09:00am 15.1 15.1 13.6 91 0.8 NE 6 9 3 5 1020.0 1020.1 0.0
31/08:30am 13.6 14.6 13.1 97 0.3 CALM 0 4 0 2 1020.2 1020.3 0.0
31/08:00am 12.2 12.7 11.7 97 0.3 CALM 0 0 0 0 1020.2 1020.3 0.0
31/07:30am 11.4 11.7 10.9 97 0.3 CALM 0 0 0 0 1019.9 1020.0 0.0
31/07:00am 10.9 11.1 10.4 97 0.3 CALM 0 0 0 0 1020.0 1020.1 0.0
31/06:30am 10.7 10.8 10.1 96 0.3 CALM 0 0 0 0 1020.1 1020.2 0.0
31/06:00am 10.7 10.8 10.1 96 0.3 CALM 0 0 0 0 1020.2 1020.3 0.0
31/05:30am 10.8 10.9 10.3 97 0.3 CALM 0 0 0 0 1020.0 1020.1 0.0
31/05:00am 11.0 11.2 10.4 96 0.3 CALM 0 0 0 0 1019.8 1019.9 0.0
31/04:30am 11.0 11.2 10.4 96 0.3 CALM 0 0 0 0 1019.8 1019.9 0.0
31/04:00am 11.4 11.7 10.8 96 0.3 CALM 0 0 0 0 1019.9 1020.0 0.0
31/03:30am 11.1 11.3 10.5 96 0.3 CALM 0 0 0 0 1019.9 1020.0 0.0
31/03:00am 11.3 11.5 10.7 96 0.3 CALM 0 0 0 0 1019.9 1020.0 0.0
31/02:30am 11.4 11.7 10.8 96 0.3 CALM 0 0 0 0 1020.2 1020.3 0.0
31/02:00am 11.3 10.4 10.7 96 0.3 W 6 7 3 4 1020.6 1020.7 0.0
31/01:30am 11.3 11.5 10.5 95 0.4 CALM 0 0 0 0 1021.1 1021.2 0.0
31/01:00am 11.3 11.5 10.5 95 0.4 CALM 0 0 0 0 1021.3 1021.4 0.0
31/12:30am 11.5 10.7 10.9 96 0.3 SE 6 7 3 4 1021.3 1021.4 0.0
31/12:00am 11.5 10.4 10.7 95 0.4 WSW 7 11 4 6 1021.7 1021.8 0.0
 
Date/Time
EST
Temp
°C
App
Temp
°C
Dew
Point
°C
Rel
Hum
%
Delta-T
°C
Wind Press
QNH
hPa
Press
MSL
hPa
Rain since
9am
mm
Dir  Spd
km/h
Gust
km/h
Spd
kts
Gust
kts
30/11:30pm 11.7 10.8 10.6 93 0.6 SSW 6 9 3 5 1021.8 1021.9 0.0
30/11:00pm 12.1 11.0 10.8 92 0.7 SW 7 11 4 6 1021.9 1022.0 0.0
30/10:30pm 13.3 12.5 11.7 90 0.9 SW 7 11 4 6 1021.8 1021.9 0.0
30/10:00pm 13.9 13.4 11.9 88 1.1 SW 6 7 3 4 1022.0 1022.1 0.0
30/09:30pm 13.8 13.5 11.5 86 1.2 SSE 4 9 2 5 1022.2 1022.3 0.0
30/09:00pm 14.1 13.3 11.6 85 1.3 SSW 7 9 4 5 1022.6 1022.6 0.0
30/08:30pm 14.9 14.3 11.7 81 1.7 SW 6 7 3 4 1022.6 1022.6 0.0
30/08:00pm 15.0 13.4 11.6 80 1.8 WSW 11 13 6 7 1022.8 1022.8 0.0
30/07:30pm 14.9 13.6 11.3 79 1.9 SW 9 11 5 6 1022.4 1022.5 0.0
30/07:00pm 15.0 13.6 10.8 76 2.2 SW 9 11 5 6 1022.9 1022.9 0.0
30/06:30pm 16.6 15.6 10.9 69 3.1 SW 7 11 4 6 1022.7 1022.7 0.0
30/06:00pm 17.8 17.2 10.4 62 3.9 ESE 4 7 2 4 1022.3 1022.4 0.0
30/05:30pm 18.8 17.7 10.6 59 4.4 E 7 11 4 6 1022.3 1022.4 0.0
30/05:00pm 20.7 18.0 10.5 52 5.5 NE 15 19 8 10 1022.2 1022.3 0.0
30/04:30pm 22.1 19.6 9.6 45 6.8 N 13 17 7 9 1021.8 1021.9 0.0
30/04:00pm 22.8 20.9 9.2 42 7.3 N 9 13 5 7 1021.8 1021.9 0.0
30/03:30pm 23.1 20.0 8.8 40 7.7 N 15 20 8 11 1022.2 1022.3 0.0
30/03:00pm 23.6 21.2 8.8 39 7.9 NNW 11 20 6 11 1022.4 1022.5 0.0
30/02:30pm 23.0 20.6 8.7 40 7.6 NNW 11 19 6 10 1022.8 1022.8 0.0
30/02:00pm 22.3 19.6 8.8 42 7.2 N 13 19 7 10 1023.2 1023.2 0.0
30/01:30pm 21.5 19.8 9.7 47 6.4 NW 9 17 5 9 1023.7 1023.7 0.0
30/01:00pm 21.0 19.2 9.3 47 6.2 NNW 9 17 5 9 1024.1 1024.1 0.0
30/12:30pm 19.3 17.3 10.0 55 5.0 N 11 15 6 8 1024.6 1024.6 0.0
30/12:00pm 19.1 16.3 8.4 50 5.5 N 13 17 7 9 1024.8 1024.8 0.0
30/11:30am 19.5 18.4 10.5 56 4.9 N 7 13 4 7 1025.5 1025.5 0.0
30/11:00am 18.5 16.8 9.8 57 4.6 NNE 9 22 5 12 1025.5 1025.5 0.0
30/10:30am 17.8 17.0 11.6 67 3.4 N 7 13 4 7 1025.9 1025.9 0.0
30/10:00am 16.4 15.3 10.0 66 3.4 NNW 6 11 3 6 1026.2 1026.2 0.0
30/09:30am 15.0 14.3 10.2 73 2.5 NNE 4 9 2 5 1026.1 1026.1 0.0
30/09:00am 13.7 12.5 9.6 76 2.1 NE 6 7 3 4 1026.5 1026.5 0.0
30/08:30am 12.4 11.0 9.4 82 1.5 NW 7 9 4 5 1026.7 1026.7 0.0
30/08:00am 10.8 9.4 9.4 91 0.7 N 7 13 4 7 1026.8 1026.8 0.0
30/07:30am 8.2 7.7 7.9 98 0.1 CALM 0 0 0 0 1026.6 1026.6 0.0
30/07:00am 6.2 5.3 5.9 98 0.1 CALM 0 0 0 0 1026.3 1026.3 0.0
30/06:30am 5.2 4.0 4.6 96 0.3 CALM 0 0 0 0 1026.3 1026.3 0.0
30/06:00am 5.8 4.8 5.4 97 0.2 CALM 0 0 0 0 1026.1 1026.1 0.0
30/05:30am 5.9 4.9 5.5 97 0.2 CALM 0 0 0 0 1025.7 1025.7 0.0
30/05:00am 5.4 4.2 4.8 96 0.3 CALM 0 0 0 0 1025.6 1025.6 0.0
30/04:30am 5.5 4.4 4.9 96 0.3 CALM 0 0 0 0 1025.4 1025.4 0.0
30/04:00am 6.2 5.2 5.6 96 0.3 CALM 0 0 0 0 1024.6 1024.6 0.0
30/03:30am 6.2 4.0 5.3 94 0.4 SW 6 9 3 5 1024.2 1024.2 0.0
30/03:00am 7.1 5.9 6.4 95 0.3 SW 2 6 1 3 1024.1 1024.1 0.0
30/02:30am 7.5 6.7 6.4 93 0.5 CALM 0 6 0 3 1024.5 1024.5 0.0
30/02:00am 8.3 6.6 7.5 95 0.4 SE 6 6 3 3 1025.1 1025.1 0.0
30/01:30am 8.7 7.6 6.8 88 0.9 SW 2 7 1 4 1025.4 1025.4 0.0
30/01:00am 9.8 8.9 7.7 87 1.0 SSW 2 6 1 3 1025.4 1025.4 0.0
30/12:30am 10.4 8.2 8.0 85 1.2 SSW 9 11 5 6 1025.0 1025.0 0.0
30/12:00am 10.2 8.0 8.0 86 1.1 SW 9 13 5 7 1025.0 1025.0 0.0
 
Date/Time
EST
Temp
°C
App
Temp
°C
Dew
Point
°C
Rel
Hum
%
Delta-T
°C
Wind Press
QNH
hPa
Press
MSL
hPa
Rain since
9am
mm
Dir  Spd
km/h
Gust
km/h
Spd
kts
Gust
kts
29/11:30pm 10.9 9.5 9.0 88 0.9 SSW 6 7 3 4 1025.0 1025.0 0.0
29/11:00pm 11.1 9.6 9.2 88 0.9 ESE 7 9 4 5 1025.1 1025.1 0.0
29/10:30pm 11.4 10.0 9.5 88 1.0 SW 7 11 4 6 1025.8 1025.8 0.0
29/10:00pm 11.6 9.4 9.3 86 1.2 SW 11 15 6 8 1025.4 1025.4 0.0
29/09:30pm 11.1 9.5 8.8 86 1.1 S 7 9 4 5 1024.6 1024.6 0.0
29/09:00pm 12.3 10.4 9.1 81 1.6 S 9 11 5 6 1025.5 1025.5 0.0
29/08:30pm 12.8 11.0 9.4 80 1.7 S 9 13 5 7 1026.0 1026.0 0.0
29/08:00pm 13.1 11.3 9.4 78 1.9 SSW 9 13 5 7 1026.0 1026.0 0.0
29/07:30pm 13.5 11.7 9.6 77 2.0 S 9 11 5 6 1025.3 1025.3 0.0
29/07:00pm 13.8 12.3 9.3 74 2.3 S 7 9 4 5 1025.4 1025.4 0.0
29/06:30pm 14.1 12.1 8.7 70 2.7 SSE 9 11 5 6 1025.0 1025.0 0.0
29/06:00pm 14.6 12.8 8.1 65 3.2 SE 7 7 4 4 1024.9 1024.9 0.0
29/05:30pm 16.1 13.8 7.6 57 4.3 ESE 9 13 5 7 1024.8 1024.8 0.0
29/05:00pm 16.7 14.4 5.9 49 5.2 ESE 7 9 4 5 1024.4 1024.4 0.0
29/04:30pm 18.0 15.4 4.2 40 6.5 SE 7 11 4 6 1024.3 1024.3 0.0
29/04:00pm 18.9 15.8 3.5 36 7.2 ESE 9 13 5 7 1023.9 1023.9 0.0
29/03:30pm 19.3 15.6 2.6 33 7.7 ESE 11 13 6 7 1024.0 1024.0 0.0
29/03:00pm 19.2 16.3 2.6 33 7.7 ESE 7 11 4 6 1024.0 1024.0 0.0
29/02:30pm 19.5 17.4 1.5 30 8.2 N 2 9 1 5 1024.0 1024.0 0.0
29/02:00pm 20.1 18.3 3.3 33 7.9 SE 2 11 1 6 1024.1 1024.1 0.0
29/01:30pm 19.4 16.1 2.7 33 7.8 NE 9 15 5 8 1024.2 1024.2 0.0
29/01:00pm 19.4 17.0 4.4 37 7.2 NNW 6 15 3 8 1024.4 1024.4 0.0
29/12:30pm 18.8 16.0 3.4 36 7.2 NE 7 17 4 9 1024.8 1024.8 0.0
29/12:00pm 18.1 15.6 3.9 39 6.7 ENE 6 11 3 6 1025.3 1025.3 0.0

Other Formats:

Comma delimited format used in spreadsheet applications
http://www.bom.gov.au/fwo/IDN60801/IDN60801.95771.axf

JavaScript Object Notation format (JSON) in row-major order
http://www.bom.gov.au/fwo/IDN60801/IDN60801.95771.json